Time;durP1;ratioP1;P1;durP2;ratioP2;P2;SDS_P1;SDS_P2;PMS_P1;PMS_P2;Temp;Humidity;BMP_temperature;BMP_pressure;BME280_temperature;BME280_humidity;BME280_pressure;Samples;Min_cycle;Max_cycle;Signal;HPM_P1;HPM_P2
2022/02/03 00:00:36;;;;;;;5.62;1.45;;;;;;;5.72;54.37;99879.13;4362238;32;32728;-83
2022/02/03 00:03:16;;;;;;;2.05;1.23;;;;;;;5.48;55.02;99872.66;4367118;32;33794;-84
2022/02/03 00:06:01;;;;;;;3.00;0.65;;;;;;;5.60;54.79;99885.50;4339068;32;31065;-84
2022/02/03 00:08:52;;;;;;;2.97;1.00;;;;;;;5.69;54.58;99884.41;4349628;32;34659;-84
2022/02/03 00:22:20;;;;;;;4.87;1.00;;;;;;;5.54;55.44;99918.81;4373775;32;32729;-83
2022/02/03 00:25:26;;;;;;;2.67;0.98;;;;;;;5.48;55.28;99911.09;4347980;32;33926;-83
2022/02/03 00:28:23;;;;;;;4.68;2.35;;;;;;;5.38;55.73;99919.13;4343942;32;32556;-82
2022/02/03 00:36:21;;;;;;;3.65;0.95;;;;;;;5.42;56.03;99940.03;4354495;32;33721;-81
2022/02/03 00:50:23;;;;;;;4.07;1.30;;;;;;;4.84;57.97;99966.44;4360893;32;33908;-82
2022/02/03 00:52:52;;;;;;;3.20;0.75;;;;;;;5.11;57.04;99980.75;4360470;32;32995;-82
2022/02/03 00:55:20;;;;;;;2.10;0.98;;;;;;;5.22;56.85;99993.66;4371774;32;32773;-82
2022/02/03 00:57:50;;;;;;;1.90;0.77;;;;;;;5.28;56.76;99990.91;4345244;32;33195;-82
2022/02/03 01:00:19;;;;;;;5.07;1.05;;;;;;;5.35;56.52;99995.13;4346291;32;31843;-82
2022/02/03 01:03:08;;;;;;;2.50;0.90;;;;;;;5.21;57.19;100007.59;4366292;32;33860;-83
2022/02/03 01:05:37;;;;;;;2.50;1.02;;;;;;;5.35;57.07;100012.59;4359593;32;33641;-82
2022/02/03 01:08:14;;;;;;;6.45;1.10;;;;;;;5.43;56.69;100018.56;4360011;32;32454;-81
2022/02/03 01:10:52;;;;;;;2.53;0.70;;;;;;;5.30;57.09;100036.25;4366268;32;33695;-82
2022/02/03 01:13:48;;;;;;;4.10;0.80;;;;;;;5.75;55.44;100036.25;4361080;32;33961;-82
2022/02/03 01:16:25;;;;;;;6.28;1.15;;;;;;;5.85;55.09;100053.53;4368263;32;33574;-82
2022/02/03 01:53:31;;;;;;;2.50;0.82;;;;;;;5.95;55.74;100105.78;4355863;32;33509;-83
2022/02/03 01:56:04;;;;;;;1.87;0.73;;;;;;;5.98;55.38;100110.94;4359996;32;33059;-83
2022/02/03 01:58:42;;;;;;;6.28;1.15;;;;;;;5.89;55.68;100118.09;4345653;32;33693;-83
2022/02/03 02:01:13;;;;;;;4.05;0.98;;;;;;;6.11;54.72;100112.44;4349927;32;33364;-83
2022/02/03 02:03:50;;;;;;;4.60;1.12;;;;;;;5.92;54.79;100117.19;4356023;32;33670;-84
2022/02/03 02:06:59;;;;;;;2.70;0.73;;;;;;;5.90;54.51;100119.81;4352428;32;34151;-83
2022/02/03 02:09:39;;;;;;;2.50;0.93;;;;;;;5.85;54.34;100126.91;4340501;32;32958;-83
2022/02/03 02:12:25;;;;;;;7.10;1.40;;;;;;;5.83;54.26;100133.03;4357898;32;34559;-83
2022/02/03 02:38:39;;;;;;;2.12;0.88;;;;;;;5.68;53.42;100139.44;4364553;32;33404;-82
2022/02/03 02:43:17;;;;;;;3.47;1.20;;;;;;;5.40;54.01;100134.69;4374809;32;34417;-83
2022/02/03 02:45:50;;;;;;;3.33;0.45;;;;;;;5.21;54.24;100151.59;4360245;32;33935;-83
2022/02/03 02:48:24;;;;;;;2.00;1.20;;;;;;;5.43;53.85;100135.53;4343903;32;33522;-83
2022/02/03 02:51:00;;;;;;;5.28;0.80;;;;;;;5.00;55.43;100144.09;4374267;32;33003;-83
2022/02/03 02:56:29;;;;;;;2.47;0.93;;;;;;;5.06;54.88;100154.47;4371478;32;33862;-83
2022/02/03 03:29:39;;;;;;;2.55;0.90;;;;;;;5.05;54.63;100192.00;4363352;32;34127;-82
2022/02/03 03:37:30;;;;;;;4.40;0.95;;;;;;;4.52;56.13;100219.75;4361542;32;34668;-82
2022/02/03 03:40:02;;;;;;;2.95;0.80;;;;;;;4.59;56.28;100221.41;4349199;32;33854;-83
2022/02/03 03:42:32;;;;;;;3.75;0.85;;;;;;;4.77;55.64;100215.94;4362396;32;33833;-82
2022/02/03 03:45:03;;;;;;;2.25;1.23;;;;;;;4.58;56.28;100210.06;4351054;32;33076;-83
2022/02/03 03:47:34;;;;;;;2.60;1.02;;;;;;;4.75;56.03;100212.50;4348453;32;33570;-85
2022/02/03 03:50:09;;;;;;;6.07;0.93;;;;;;;4.90;55.58;100205.31;4348786;32;34217;-84
2022/02/03 03:52:53;;;;;;;4.68;1.33;;;;;;;4.82;55.77;100201.03;4372245;32;33661;-84
2022/02/03 04:28:44;;;;;;;4.10;0.93;;;;;;;4.00;58.29;100209.91;4361561;32;33545;-84
2022/02/03 05:04:22;;;;;;;5.10;1.33;;;;;;;4.52;57.27;100262.47;4364180;32;32882;-82
2022/02/03 05:12:56;;;;;;;6.22;1.08;;;;;;;4.29;58.60;100275.78;4364604;32;32808;-81
2022/02/03 05:17:05;;;;;;;6.10;1.08;;;;;;;4.26;58.64;100280.19;4344615;32;34147;-82
2022/02/03 05:18:58;;;;;;;7.15;0.88;;;;;;;4.70;57.58;100292.78;4359094;32;33474;-82
2022/02/03 05:44:52;;;;;;;3.60;0.90;;;;;;;4.34;59.79;100370.72;4359371;32;33825;-82
2022/02/03 05:53:08;;;;;;;5.82;1.25;;;;;;;4.63;58.55;100359.09;4365182;32;33520;-83
2022/02/03 06:14:30;;;;;;;2.37;1.00;;;;;;;4.17;60.51;100362.16;4359387;32;33946;-84
2022/02/03 06:17:06;;;;;;;5.37;0.98;;;;;;;4.15;60.73;100369.16;4348494;32;33598;-84
2022/02/03 06:27:25;;;;;;;5.40;1.08;;;;;;;4.06;61.03;100366.63;4337774;32;32488;-84
2022/02/03 06:27:55;;;;;;;4.55;0.90;;;;;;;4.00;61.13;100370.16;4360735;32;34793;-84
2022/02/03 06:30:23;;;;;;;4.03;1.50;;;;;;;4.04;60.87;100384.06;4359571;32;32983;-83
2022/02/03 06:32:50;;;;;;;3.65;1.55;;;;;;;4.13;60.57;100397.06;4348698;32;33143;-84
2022/02/03 06:35:19;;;;;;;3.67;1.25;;;;;;;4.22;59.79;100394.34;4361411;32;33749;-84
2022/02/03 06:37:49;;;;;;;4.32;1.10;;;;;;;4.06;60.21;100409.28;4362012;32;34358;-84
2022/02/03 06:40:17;;;;;;;6.15;2.03;;;;;;;4.39;59.04;100406.41;4355099;32;33514;-84
2022/02/03 06:42:46;;;;;;;3.30;1.12;;;;;;;4.33;59.49;100404.72;4338243;32;33858;-84
2022/02/03 06:45:29;;;;;;;5.45;1.20;;;;;;;4.25;59.19;100422.22;4374517;32;32446;-84
2022/02/03 06:48:06;;;;;;;4.70;1.20;;;;;;;4.73;57.98;100427.88;4353200;32;33716;-85
2022/02/03 06:50:40;;;;;;;3.28;1.10;;;;;;;4.53;58.48;100430.69;4359772;32;33556;-84
2022/02/03 06:53:13;;;;;;;1.17;0.85;;;;;;;4.68;58.34;100435.78;4364390;32;33659;-85
2022/02/03 06:58:19;;;;;;;5.55;1.67;;;;;;;5.00;57.59;100452.91;4363921;32;32993;-84
2022/02/03 07:03:39;;;;;;;4.10;1.20;;;;;;;5.14;57.31;100458.88;4364843;32;32373;-85
2022/02/03 07:06:07;;;;;;;;;;;;;;;5.13;57.68;100465.88;4362799;32;34081;-85
2022/02/03 07:08:36;;;;;;;7.97;1.33;;;;;;;5.58;56.41;100455.72;4363672;32;32848;-84
2022/02/03 07:11:07;;;;;;;3.67;1.67;;;;;;;5.54;56.75;100466.25;4376111;32;34060;-84
2022/02/03 07:13:36;;;;;;;6.80;1.50;;;;;;;5.49;57.08;100457.59;4350309;32;33106;-84
2022/02/03 07:16:03;;;;;;;1.10;0.77;;;;;;;5.33;57.57;100460.41;4375837;32;34315;-85
2022/02/03 07:18:32;;;;;;;3.03;1.60;;;;;;;5.35;57.60;100466.47;4356714;32;33675;-85
2022/02/03 07:21:01;;;;;;;3.75;1.87;;;;;;;5.51;57.50;100477.66;4339426;32;34348;-85
2022/02/03 07:23:29;;;;;;;3.37;1.23;;;;;;;5.54;57.52;100451.41;4363963;32;32443;-84
2022/02/03 07:25:57;;;;;;;9.98;2.00;;;;;;;5.44;57.87;100462.00;4363633;32;33018;-85
2022/02/03 07:28:25;;;;;;;3.78;1.58;;;;;;;5.47;57.77;100454.13;4375737;32;33917;-84
2022/02/03 07:30:52;;;;;;;4.37;1.83;;;;;;;5.47;57.76;100448.88;4363372;32;33834;-84
2022/02/03 07:33:21;;;;;;;3.90;1.90;;;;;;;5.54;57.79;100450.53;4343171;32;33228;-85
2022/02/03 07:35:49;;;;;;;5.65;2.22;;;;;;;5.33;58.42;100457.78;4351548;32;34162;-84
2022/02/03 07:38:21;;;;;;;9.02;1.77;;;;;;;5.58;57.81;100463.56;4363488;32;33670;-85
2022/02/03 07:40:49;;;;;;;;;;;;;;;5.49;58.25;100463.69;4355860;32;34551;-85
2022/02/03 07:43:17;;;;;;;10.38;2.05;;;;;;;5.70;57.66;100470.44;4361041;32;33692;-85
2022/02/03 07:45:45;;;;;;;7.10;1.83;;;;;;;5.62;57.80;100481.00;4363159;32;32349;-85
2022/02/03 07:48:13;;;;;;;3.42;1.12;;;;;;;5.87;57.30;100480.66;4372836;32;34863;-84
2022/02/03 07:50:40;;;;;;;12.50;2.03;;;;;;;5.89;56.65;100492.88;4363425;32;34924;-85
2022/02/03 07:53:09;;;;;;;3.53;1.42;;;;;;;5.82;57.20;100504.31;4362283;32;33230;-85
2022/02/03 07:55:42;;;;;;;2.28;1.33;;;;;;;5.78;57.05;100507.84;4351591;32;33395;-84
2022/02/03 07:58:10;;;;;;;4.97;1.40;;;;;;;5.84;57.44;100510.41;4344288;32;32754;-85
2022/02/03 08:00:40;;;;;;;5.25;1.45;;;;;;;5.85;57.06;100514.75;4344952;32;33281;-85
2022/02/03 08:03:23;;;;;;;2.60;1.10;;;;;;;5.80;57.61;100505.25;4362700;32;33440;-83
2022/02/03 08:05:57;;;;;;;4.62;1.35;;;;;;;5.61;57.97;100515.06;4350531;32;33787;-83
2022/02/03 08:08:31;;;;;;;4.78;1.05;;;;;;;6.01;56.85;100511.97;4357902;32;33835;-83
2022/02/03 08:11:06;;;;;;;5.35;1.48;;;;;;;5.88;57.55;100522.56;4350140;32;33054;-83
2022/02/03 08:13:38;;;;;;;4.97;1.67;;;;;;;6.00;57.03;100515.47;4364349;32;33518;-83
2022/02/03 08:16:16;;;;;;;11.73;2.05;;;;;;;6.46;55.73;100515.69;4351562;32;32405;-83
2022/02/03 08:18:49;;;;;;;4.32;1.40;;;;;;;6.50;55.29;100527.84;4362888;32;32997;-83
2022/02/03 08:21:18;;;;;;;4.78;1.50;;;;;;;6.39;55.57;100528.00;4351609;32;34599;-83
2022/02/03 08:31:50;;;;;;;6.37;1.62;;;;;;;6.57;55.03;100520.75;4359117;32;34305;-83
2022/02/03 08:34:32;;;;;;;2.70;1.40;;;;;;;6.21;55.91;100512.53;4362803;32;33052;-83
2022/02/03 08:37:04;;;;;;;5.10;1.40;;;;;;;6.67;53.55;100517.09;4362675;32;33803;-83
2022/02/03 08:39:37;;;;;;;6.05;1.65;;;;;;;6.62;53.80;100513.69;4374520;32;33908;-83
2022/02/03 08:42:05;;;;;;;3.95;1.20;;;;;;;6.59;54.11;100516.34;4342831;32;34179;-83
2022/02/03 08:44:35;;;;;;;7.82;2.60;;;;;;;6.72;53.96;100512.63;4347587;32;33906;-83
2022/02/03 08:47:03;;;;;;;3.62;1.23;;;;;;;6.92;53.16;100512.28;4369355;32;33504;-84
2022/02/03 08:49:33;;;;;;;4.95;1.87;;;;;;;7.05;52.42;100521.69;4348836;32;33948;-83
2022/02/03 08:52:06;;;;;;;4.18;1.27;;;;;;;6.61;54.41;100523.31;4362173;32;34094;-82
2022/02/03 08:54:37;;;;;;;8.20;1.48;;;;;;;6.99;53.40;100536.69;4361630;32;33394;-83
2022/02/03 08:57:15;;;;;;;1.70;0.82;;;;;;;7.05;52.09;100534.81;4345234;32;33595;-83
2022/02/03 09:00:11;;;;;;;2.10;1.20;;;;;;;7.17;51.66;100528.50;4349809;32;33008;-83
2022/02/03 09:34:38;;;;;;;3.25;1.25;;;;;;;8.32;47.30;100561.22;4359667;32;33141;-85
2022/02/03 09:38:56;;;;;;;3.05;1.52;;;;;;;8.76;46.92;100550.56;4356703;32;34575;-85
2022/02/03 09:41:47;;;;;;;7.40;1.55;;;;;;;8.62;47.54;100558.81;4349205;32;32267;-85
2022/02/03 09:57:55;;;;;;;4.25;1.33;;;;;;;9.45;45.10;100553.19;4361851;32;32577;-86
2022/02/03 10:00:26;;;;;;;2.75;1.40;;;;;;;9.48;44.64;100553.06;4373554;32;34035;-85
2022/02/03 10:02:59;;;;;;;3.33;1.27;;;;;;;9.59;44.33;100546.63;4371870;32;33835;-85
2022/02/03 10:05:37;;;;;;;3.60;1.17;;;;;;;9.66;43.95;100545.56;4360313;32;32240;-86
2022/02/03 10:08:11;;;;;;;2.10;1.10;;;;;;;9.63;44.08;100545.66;4360471;32;34119;-85
2022/02/03 10:10:47;;;;;;;5.20;1.05;;;;;;;9.79;43.09;100533.78;4360398;32;33323;-85
2022/02/03 10:13:21;;;;;;;1.02;0.82;;;;;;;9.78;43.10;100533.81;4340384;32;33412;-86
2022/02/03 10:16:04;;;;;;;4.47;1.10;;;;;;;10.12;41.79;100524.00;4361719;32;32821;-85
2022/02/03 10:18:32;;;;;;;3.55;0.93;;;;;;;9.64;43.71;100534.22;4361465;32;33210;-85
2022/02/03 10:21:01;;;;;;;3.35;1.08;;;;;;;10.23;42.54;100536.88;4375638;32;32626;-85
2022/02/03 10:23:31;;;;;;;4.30;2.03;;;;;;;10.38;41.67;100539.06;4363150;32;34690;-85
2022/02/03 10:26:07;;;;;;;4.22;1.08;;;;;;;10.26;41.29;100531.53;4364466;32;33507;-85
2022/02/03 10:28:38;;;;;;;3.28;0.75;;;;;;;10.16;42.23;100530.03;4356505;32;33339;-85
2022/02/03 10:31:10;;;;;;;4.57;1.20;;;;;;;10.23;41.54;100523.66;4363195;32;33239;-86
2022/02/03 10:33:40;;;;;;;2.33;0.88;;;;;;;10.01;42.82;100532.22;4375440;32;33365;-86
2022/02/03 10:36:22;;;;;;;3.80;0.98;;;;;;;10.24;40.93;100533.34;4364770;32;33236;-86
2022/02/03 10:39:12;;;;;;;2.47;1.48;;;;;;;10.59;39.35;100528.75;4360936;32;34039;-86
2022/02/03 10:51:03;;;;;;;3.58;1.08;;;;;;;10.81;38.81;100516.56;4374900;32;33308;-86
2022/02/03 10:55:58;;;;;;;6.53;1.30;;;;;;;10.58;39.02;100532.28;4362602;32;32661;-86
2022/02/03 11:01:17;;;;;;;3.53;0.95;;;;;;;10.66;39.64;100530.28;4373311;32;33383;-86
2022/02/03 11:06:40;;;;;;;2.20;0.85;;;;;;;11.28;38.34;100514.94;4374822;32;33565;-86
2022/02/03 11:09:21;;;;;;;4.70;1.27;;;;;;;11.17;37.45;100506.53;4350590;32;33042;-86
2022/02/03 11:11:55;;;;;;;3.80;0.95;;;;;;;11.27;37.37;100507.06;4349629;32;32412;-86
2022/02/03 11:14:24;;;;;;;5.32;1.30;;;;;;;11.17;37.30;100506.53;4352193;32;33402;-85
2022/02/03 11:16:52;;;;;;;4.55;1.45;;;;;;;11.29;37.68;100498.13;4362492;32;34181;-86
2022/02/03 11:19:26;;;;;;;0.95;0.60;;;;;;;11.48;37.31;100486.91;4374702;32;33635;-86
2022/02/03 11:22:03;;;;;;;2.97;0.65;;;;;;;11.19;38.15;100493.25;4358967;32;32716;-86
2022/02/03 11:24:34;;;;;;;1.60;0.70;;;;;;;11.20;36.23;100487.94;4347562;32;33106;-86
2022/02/03 11:27:14;;;;;;;3.37;0.90;;;;;;;10.93;38.03;100487.09;4348782;32;33090;-86
2022/02/03 11:41:36;;;;;;;2.37;1.25;;;;;;;11.69;36.52;100487.91;4367619;32;34220;-85
2022/02/03 11:44:25;;;;;;;;;;;;;;;11.03;39.29;100498.22;4366672;32;33680;-86
2022/02/03 12:04:49;;;;;;;1.60;0.80;;;;;;;10.80;36.13;100485.78;4368774;32;32534;-85
2022/02/03 12:16:22;;;;;;;1.20;0.90;;;;;;;10.73;37.05;100485.13;4355358;32;34862;-86
2022/02/03 12:21:43;;;;;;;2.53;0.80;;;;;;;11.33;35.26;100490.12;4359663;32;32570;-86
2022/02/03 12:30:00;;;;;;;1.98;1.12;;;;;;;10.97;36.62;100488.72;4354714;32;33988;-86
2022/02/03 12:38:23;;;;;;;2.08;1.42;;;;;;;11.32;36.21;100494.53;4340418;32;33649;-86
2022/02/03 12:40:58;;;;;;;3.92;1.10;;;;;;;11.62;35.08;100481.97;4362094;32;34719;-86
2022/02/03 12:45:54;;;;;;;4.25;0.62;;;;;;;11.39;36.17;100480.16;4371898;32;33745;-86
2022/02/03 12:48:26;;;;;;;2.97;0.55;;;;;;;11.09;35.28;100486.56;4349615;32;32873;-86
2022/02/03 12:50:55;;;;;;;1.73;1.05;;;;;;;10.83;35.88;100492.75;4362005;32;34078;-86
2022/02/03 12:53:29;;;;;;;1.20;0.90;;;;;;;11.18;35.34;100486.22;4348316;32;32956;-86
2022/02/03 12:55:57;;;;;;;2.55;0.98;;;;;;;11.01;36.37;100485.06;4361131;32;32740;-86
2022/02/03 12:58:26;;;;;;;7.53;1.42;;;;;;;10.93;37.11;100500.31;4347623;32;33444;-86
2022/02/03 13:00:59;;;;;;;2.12;1.20;;;;;;;11.08;36.02;100503.34;4361153;32;33288;-86
2022/02/03 13:03:34;;;;;;;2.55;0.68;;;;;;;10.79;36.48;100510.47;4350231;32;33071;-86
2022/02/03 13:06:05;;;;;;;1.52;1.08;;;;;;;11.02;35.57;100496.50;4373640;32;33857;-86
2022/02/03 13:08:36;;;;;;;4.03;0.82;;;;;;;11.26;35.32;100500.06;4349682;32;32766;-86
2022/02/03 13:11:20;;;;;;;5.85;1.10;;;;;;;11.09;35.55;100494.47;4349796;32;32936;-86
2022/02/03 13:16:33;;;;;;;2.50;0.70;;;;;;;10.30;37.40;100485.63;4360752;32;32276;-86
2022/02/03 13:19:18;;;;;;;4.45;1.23;;;;;;;10.20;37.97;100478.88;4349504;32;34981;-86
2022/02/03 13:27:00;;;;;;;2.25;0.80;;;;;;;9.88;38.14;100487.81;4348932;32;33742;-86
2022/02/03 13:29:48;;;;;;;0.80;0.68;;;;;;;10.09;37.64;100488.94;4361212;32;32598;-86
2022/02/03 13:32:22;;;;;;;3.65;0.80;;;;;;;10.39;37.22;100485.34;4350956;32;32888;-86
2022/02/03 13:35:03;;;;;;;2.95;1.10;;;;;;;10.34;37.81;100491.69;4362003;32;32976;-86
2022/02/03 13:37:39;;;;;;;3.22;0.75;;;;;;;10.34;38.45;100491.69;4352120;32;33779;-86
2022/02/03 13:40:17;;;;;;;3.62;1.10;;;;;;;10.48;37.94;100486.81;4371813;32;33295;-86
2022/02/03 13:42:51;;;;;;;3.47;1.17;;;;;;;10.89;37.19;100480.19;4344665;32;32562;-85
2022/02/03 13:45:22;;;;;;;12.23;1.37;;;;;;;10.82;37.76;100480.44;4343707;32;33159;-85
2022/02/03 13:47:51;;;;;;;2.67;1.15;;;;;;;10.91;35.86;100472.19;4360178;32;33380;-85
2022/02/03 13:50:22;;;;;;;5.15;0.77;;;;;;;10.66;36.00;100470.38;4348285;32;32913;-86
2022/02/03 14:16:13;;;;;;;7.07;1.65;;;;;;;10.88;36.73;100483.75;4367372;32;32723;-86
2022/02/03 14:18:58;;;;;;;3.33;1.48;;;;;;;10.99;35.34;100483.38;4366844;32;32277;-86
2022/02/03 14:21:05;;;;;;;4.43;1.20;;;;;;;10.81;36.33;100486.62;4367970;32;32956;-86
2022/02/03 14:29:19;;;;;;;6.57;0.90;;;;;;;10.21;37.87;100485.91;4361721;32;32615;-86
2022/02/03 14:31:57;;;;;;;3.53;1.15;;;;;;;9.81;38.92;100476.56;4356358;32;33672;-87
2022/02/03 14:34:37;;;;;;;3.67;0.90;;;;;;;9.83;38.80;100477.41;4363271;32;33993;-86
2022/02/03 14:39:55;;;;;;;4.93;1.30;;;;;;;9.73;38.91;100478.56;4372704;32;34034;-86
2022/02/03 14:42:30;;;;;;;5.28;1.67;;;;;;;10.09;37.84;100476.59;4349213;32;33073;-86
2022/02/03 14:44:58;;;;;;;2.47;1.10;;;;;;;9.87;38.29;100483.41;4361241;32;32875;-86
2022/02/03 14:47:29;;;;;;;2.35;0.90;;;;;;;9.86;38.82;100479.06;4375283;32;33627;-86
2022/02/03 14:50:00;;;;;;;6.65;1.35;;;;;;;10.11;37.88;100481.81;4349966;32;32918;-86
2022/02/03 14:52:44;;;;;;;3.62;1.40;;;;;;;9.72;39.41;100482.09;4362611;32;34309;-85
2022/02/03 14:58:18;;;;;;;6.55;1.90;;;;;;;9.67;39.16;100484.87;4374436;32;32624;-86
2022/02/03 15:00:47;;;;;;;6.37;1.12;;;;;;;9.73;39.60;100486.47;4358022;32;36475;-86
2022/02/03 15:03:17;;;;;;;5.25;1.23;;;;;;;9.64;39.78;100484.97;4350340;32;33367;-86
2022/02/03 15:05:51;;;;;;;4.05;1.40;;;;;;;9.42;40.45;100479.44;4362056;32;33993;-86
2022/02/03 15:08:23;;;;;;;4.70;1.50;;;;;;;9.68;39.62;100475.19;4372103;32;34131;-86
2022/02/03 15:11:03;;;;;;;2.80;1.35;;;;;;;9.60;39.70;100483.34;4374422;32;33216;-86
2022/02/03 15:13:41;;;;;;;3.00;1.10;;;;;;;9.60;39.61;100482.47;4375313;32;33195;-86
2022/02/03 15:16:11;;;;;;;6.75;1.70;;;;;;;9.57;40.19;100482.56;4350050;32;33261;-86
2022/02/03 15:18:59;;;;;;;4.85;1.73;;;;;;;9.64;39.63;100484.13;4373185;32;33372;-86
2022/02/03 15:21:27;;;;;;;4.65;1.37;;;;;;;9.60;39.53;100478.06;4349763;32;32447;-86
2022/02/03 15:23:55;;;;;;;3.75;1.83;;;;;;;9.30;40.30;100477.13;4368118;32;33865;-86
2022/02/03 15:26:23;;;;;;;4.07;1.60;;;;;;;9.55;39.73;100473.84;4349274;32;33638;-86
2022/02/03 15:28:54;;;;;;;4.60;2.05;;;;;;;9.55;39.75;100474.69;4360455;32;33498;-86
2022/02/03 15:31:26;;;;;;;10.43;2.40;;;;;;;9.46;40.03;100465.28;4362268;32;32621;-86
2022/02/03 15:33:58;;;;;;;7.35;2.12;;;;;;;9.26;40.53;100461.44;4348659;32;33404;-86
2022/02/03 15:36:27;;;;;;;9.50;2.30;;;;;;;9.07;40.93;100466.34;4360591;32;33222;-85
2022/02/03 15:38:55;;;;;;;5.82;2.35;;;;;;;9.12;40.81;100470.63;4349150;32;32686;-86
2022/02/03 15:41:27;;;;;;;11.30;3.00;;;;;;;9.30;40.48;100461.31;4361807;32;32919;-86
2022/02/03 15:43:58;;;;;;;;;;;;;;;8.66;42.42;100473.59;4356909;32;33340;-86
2022/02/03 15:46:28;;;;;;;6.90;3.30;;;;;;;8.64;42.51;100472.75;4361666;32;35511;-86
2022/02/03 15:56:59;;;;;;;3.30;2.75;;;;;;;8.63;42.53;100463.97;4371788;32;34569;-85
2022/02/03 16:18:31;;;;;;;8.02;5.05;;;;;;;7.83;44.34;100478.13;4373847;32;35205;-86
2022/02/03 16:21:10;;;;;;;14.50;6.43;;;;;;;7.64;44.89;100476.75;4355303;32;33023;-86
2022/02/03 16:23:59;;;;;;;18.08;8.15;;;;;;;7.55;45.15;100463.81;4371194;32;32985;-86
2022/02/03 16:40:51;;;;;;;32.13;11.93;;;;;;;7.41;45.26;100470.22;4349181;32;32577;-86
2022/02/03 16:51:15;;;;;;;32.72;14.30;;;;;;;6.38;48.18;100462.47;4363445;32;33318;-87
2022/02/03 16:53:43;;;;;;;29.65;15.32;;;;;;;6.51;47.57;100468.41;4358583;32;34066;-87
2022/02/03 16:56:12;;;;;;;28.00;14.23;;;;;;;6.33;47.97;100459.91;4354496;32;32679;-88
2022/02/03 16:58:42;;;;;;;29.98;14.35;;;;;;;6.28;48.26;100461.75;4353134;32;33105;-87
2022/02/03 17:01:10;;;;;;;27.40;12.37;;;;;;;6.21;48.45;100452.22;4354797;32;34068;-87
2022/02/03 17:03:38;;;;;;;24.05;10.82;;;;;;;5.97;49.10;100460.47;4356417;32;34221;-88
2022/02/03 17:06:06;;;;;;;21.55;11.75;;;;;;;6.15;48.64;100460.19;4347242;32;32333;-87
2022/02/03 17:08:35;;;;;;;23.52;9.95;;;;;;;5.81;49.68;100449.31;4347029;32;34187;-87
2022/02/03 17:11:08;;;;;;;24.52;9.55;;;;;;;6.00;49.12;100455.19;4346418;32;34586;-87
2022/02/03 17:13:36;;;;;;;17.33;10.32;;;;;;;5.90;49.08;100452.66;4346883;32;34554;-87
2022/02/03 17:16:05;;;;;;;19.98;9.23;;;;;;;5.94;49.01;100460.53;4342795;32;32880;-87
2022/02/03 17:18:32;;;;;;;20.10;10.77;;;;;;;5.35;50.69;100461.22;4367650;32;33151;-89
2022/02/03 17:21:00;;;;;;;22.60;9.18;;;;;;;5.49;50.57;100462.81;4346702;32;32973;-89
2022/02/03 17:23:28;;;;;;;21.52;10.23;;;;;;;5.74;49.61;100456.38;4355021;32;33494;-89
2022/02/03 17:31:27;;;;;;;22.35;10.55;;;;;;;5.23;51.11;100466.63;4353973;32;33233;-89
2022/02/03 18:19:32;;;;;;;36.17;15.80;;;;;;;4.12;54.23;100450.19;4349126;32;33529;-89
2022/02/03 18:30:12;;;;;;;44.72;19.15;;;;;;;3.95;55.18;100441.63;4337282;32;32983;-89
2022/02/03 18:33:11;;;;;;;37.22;18.27;;;;;;;4.41;54.15;100417.72;4350037;32;32596;-88
2022/02/03 18:52:04;;;;;;;53.72;21.65;;;;;;;4.42;54.45;100395.94;4355271;32;33993;-88
2022/02/03 19:11:48;;;;;;;40.90;20.05;;;;;;;4.79;53.74;100378.97;4356431;32;32508;-89
2022/02/03 20:08:56;;;;;;;34.72;15.38;;;;;;;4.26;55.74;100385.59;4345860;32;33396;-88
2022/02/03 20:11:25;;;;;;;35.80;14.38;;;;;;;4.32;55.70;100395.12;4345939;32;32481;-87
2022/02/03 20:13:53;;;;;;;30.90;15.63;;;;;;;4.34;55.64;100396.00;4360981;32;33800;-88
2022/02/03 20:16:22;;;;;;;34.70;14.65;;;;;;;4.68;54.63;100388.69;4374239;32;34313;-88
2022/02/03 20:18:50;;;;;;;35.85;15.27;;;;;;;4.40;55.45;100389.84;4361500;32;33791;-88
2022/02/03 20:21:20;;;;;;;38.67;15.40;;;;;;;4.36;55.62;100389.87;4348412;32;33391;-88
2022/02/03 20:23:47;;;;;;;36.40;15.75;;;;;;;4.41;55.72;100379.37;4361733;32;33553;-89
2022/02/03 20:26:17;;;;;;;33.60;14.43;;;;;;;4.41;55.75;100379.37;4343043;32;34509;-88
2022/02/03 20:28:46;;;;;;;33.28;15.10;;;;;;;4.53;55.49;100379.25;4356318;32;34616;-89
2022/02/03 20:31:14;;;;;;;34.50;15.02;;;;;;;4.50;55.40;100378.41;4347975;32;32515;-88
2022/02/03 20:33:42;;;;;;;29.20;15.18;;;;;;;4.70;54.80;100376.50;4363017;32;32635;-88
2022/02/03 20:36:10;;;;;;;36.25;14.05;;;;;;;4.72;54.70;100359.00;4334018;32;32644;-88
2022/02/03 20:38:38;;;;;;;32.42;14.30;;;;;;;4.66;54.83;100364.31;4334127;32;33916;-88
2022/02/03 20:41:06;;;;;;;34.05;15.02;;;;;;;4.59;54.70;100353.03;4332538;32;33158;-88
2022/02/03 20:43:35;;;;;;;31.15;14.75;;;;;;;4.57;54.83;100352.19;4347990;32;33322;-88
2022/02/03 20:46:05;;;;;;;29.02;14.13;;;;;;;4.56;54.90;100352.22;4336026;32;32838;-88
2022/02/03 20:48:32;;;;;;;30.55;13.62;;;;;;;4.69;54.61;100348.56;4349427;32;34052;-88
2022/02/03 20:51:00;;;;;;;29.15;13.62;;;;;;;4.60;54.78;100338.22;4359566;32;32301;-88
2022/02/03 20:53:28;;;;;;;34.90;13.32;;;;;;;4.50;54.94;100347.91;4346302;32;34053;-88
2022/02/03 20:55:56;;;;;;;31.12;13.45;;;;;;;4.66;54.51;100338.16;4361213;32;33867;-88
2022/02/03 20:58:25;;;;;;;30.45;13.10;;;;;;;4.61;54.63;100334.72;4354262;32;33738;-88
2022/02/03 21:00:59;;;;;;;28.70;12.65;;;;;;;4.62;54.54;100341.69;4349057;32;33365;-88
2022/02/03 21:03:33;;;;;;;30.05;13.00;;;;;;;4.57;54.75;100343.50;4350090;32;34005;-89
2022/02/03 21:06:02;;;;;;;29.27;13.32;;;;;;;4.55;54.72;100337.38;4349327;32;32394;-88
2022/02/03 21:08:33;;;;;;;28.80;12.73;;;;;;;4.48;55.14;100339.22;4335314;32;35647;-88
2022/02/03 21:11:01;;;;;;;26.98;12.27;;;;;;;4.62;54.65;100336.47;4356909;32;34030;-89
2022/02/03 21:13:28;;;;;;;27.00;12.52;;;;;;;4.33;55.40;100332.41;4354783;32;33295;-89
2022/02/03 21:15:58;;;;;;;26.85;12.25;;;;;;;4.36;55.49;100340.19;4332361;32;32919;-88
2022/02/03 21:18:29;;;;;;;25.70;12.55;;;;;;;4.37;55.51;100331.50;4346492;32;34505;-88
2022/02/03 21:20:57;;;;;;;31.08;12.37;;;;;;;4.25;55.81;100331.59;4343629;32;32321;-89
2022/02/03 21:23:25;;;;;;;34.13;13.70;;;;;;;4.03;56.22;100330.91;4357799;32;34008;-88
2022/02/03 21:25:55;;;;;;;34.30;14.60;;;;;;;4.18;55.84;100327.31;4344773;32;33456;-88
2022/02/03 21:28:35;;;;;;;36.78;14.18;;;;;;;4.14;55.89;100333.44;4333923;32;33054;-88
2022/02/03 21:31:04;;;;;;;30.17;14.60;;;;;;;3.95;56.67;100331.87;4338084;32;32771;-88
2022/02/03 21:33:44;;;;;;;31.30;14.57;;;;;;;4.11;56.35;100330.84;4354776;32;34074;-88
2022/02/03 21:36:13;;;;;;;31.77;14.45;;;;;;;4.19;56.02;100326.44;4371159;32;34163;-89
2022/02/03 21:38:42;;;;;;;33.42;14.13;;;;;;;4.00;56.72;100330.09;4359904;32;32388;-88
2022/02/03 21:41:11;;;;;;;29.85;12.50;;;;;;;4.05;56.64;100333.53;4348788;32;33437;-89
2022/02/03 21:43:39;;;;;;;32.60;12.85;;;;;;;4.42;55.19;100318.37;4348069;32;33577;-88
2022/02/03 21:46:09;;;;;;;24.87;11.60;;;;;;;4.55;54.79;100319.94;4361292;32;33485;-89
2022/02/03 21:48:45;;;;;;;31.35;12.55;;;;;;;4.55;54.73;100319.09;4336642;32;33716;-89
2022/02/03 21:51:22;;;;;;;25.80;10.80;;;;;;;4.36;55.42;100307.94;4358777;32;34057;-88
2022/02/03 21:53:50;;;;;;;36.13;13.43;;;;;;;4.24;55.95;100322.03;4371035;32;33192;-88
2022/02/03 21:56:19;;;;;;;90.93;30.98;;;;;;;4.01;56.82;100321.38;4347560;32;33085;-88
2022/02/03 21:58:47;;;;;;;161.88;50.80;;;;;;;4.24;56.16;100314.19;4333684;32;33922;-87
2022/02/03 22:01:16;;;;;;;94.93;33.10;;;;;;;4.48;55.24;100304.34;4347966;32;34493;-87
2022/02/03 22:03:44;;;;;;;110.65;36.38;;;;;;;4.41;55.50;100300.06;4344505;32;33575;-86
2022/02/03 22:06:12;;;;;;;100.00;35.55;;;;;;;4.13;56.40;100302.97;4359441;32;33297;-86
2022/02/03 22:08:40;;;;;;;72.93;24.92;;;;;;;4.03;56.82;100306.53;4360035;32;34365;-86
2022/02/03 22:11:08;;;;;;;42.33;16.37;;;;;;;3.76;57.32;100300.69;4359180;32;32569;-86
2022/02/03 22:13:38;;;;;;;43.17;16.67;;;;;;;3.93;56.91;100291.81;4350093;32;33152;-86
2022/02/03 22:16:18;;;;;;;33.17;13.55;;;;;;;4.21;56.14;100282.84;4350730;32;32987;-86
2022/02/03 22:18:46;;;;;;;29.00;12.15;;;;;;;4.20;56.05;100290.69;4351676;32;34210;-87
2022/02/03 22:21:26;;;;;;;29.27;11.05;;;;;;;4.07;55.76;100293.41;4362008;32;34005;-87